createdAt,value
2023-01-06T00:02:34.204Z,100930.97
2023-01-06T00:07:36.253Z,100925.78
2023-01-06T00:12:36.894Z,100939.66
2023-01-06T00:17:37.568Z,100926.66
2023-01-06T00:22:40.505Z,100925.88
2023-01-06T00:27:41.498Z,100922.44
2023-01-06T00:32:42.185Z,100931.06
2023-01-06T00:37:44.202Z,100924.13
2023-01-06T00:42:44.879Z,100923.28
2023-01-06T00:47:45.567Z,100925.88
2023-01-06T00:52:48.890Z,100918.97
2023-01-06T00:57:52.612Z,100924.19
2023-01-06T01:02:53.415Z,100919.00
2023-01-06T01:07:55.487Z,100913.84
2023-01-06T01:12:56.145Z,100914.69
2023-01-06T01:17:58.150Z,100928.47
2023-01-06T01:23:00.140Z,100925.06
2023-01-06T01:28:00.775Z,100920.75
2023-01-06T01:33:01.436Z,100917.28
2023-01-06T01:38:03.442Z,100902.59
2023-01-06T01:43:04.130Z,100910.38
2023-01-06T01:48:12.792Z,100908.63
2023-01-06T01:53:19.014Z,100907.75
2023-01-06T01:58:24.541Z,100904.28
2023-01-06T02:03:27.393Z,100900.84
2023-01-06T02:08:34.707Z,100893.06
2023-01-06T02:13:40.038Z,100890.44
2023-01-06T02:18:51.896Z,100881.75
2023-01-06T02:24:25.012Z,100864.53
2023-01-06T02:29:58.559Z,100846.41
2023-01-06T02:35:13.568Z,100859.31
2023-01-06T02:40:27.338Z,100843.72
2023-01-06T02:45:36.647Z,100847.13
2023-01-06T02:50:42.775Z,100839.41
2023-01-06T02:55:47.589Z,100849.78
2023-01-06T03:00:52.209Z,100838.59
2023-01-06T03:06:00.418Z,100826.50
2023-01-06T03:11:03.260Z,100816.97
2023-01-06T03:16:06.903Z,100809.25
2023-01-06T03:21:12.693Z,100813.53
2023-01-06T03:26:14.194Z,100805.78
2023-01-06T03:31:28.153Z,100801.47
2023-01-06T03:36:40.260Z,100800.59
2023-01-06T03:42:02.548Z,100802.34
2023-01-06T03:47:09.004Z,100787.66
2023-01-06T03:52:20.218Z,100779.88
2023-01-06T03:57:25.808Z,100779.91
2023-01-06T04:02:28.896Z,100782.47
2023-01-06T04:07:31.821Z,100765.13
2023-01-06T04:12:41.898Z,100765.19
2023-01-06T04:17:48.597Z,100766.88
2023-01-06T04:22:53.964Z,100766.91
2023-01-06T04:27:55.228Z,100753.97
2023-01-06T04:32:56.697Z,100746.22
2023-01-06T04:37:58.730Z,100737.56
2023-01-06T04:43:05.467Z,100731.53
2023-01-06T04:48:08.525Z,100734.97
2023-01-06T04:53:11.947Z,100723.78
2023-01-06T04:58:12.822Z,100731.56
2023-01-06T05:03:13.683Z,100738.47
2023-01-06T05:08:15.663Z,100728.97
2023-01-06T05:13:16.342Z,100715.16
2023-01-06T05:18:16.991Z,100707.41
2023-01-06T05:23:19.068Z,100711.72
2023-01-06T05:28:20.185Z,100720.38
2023-01-06T05:33:20.842Z,100707.41
2023-01-06T05:38:22.850Z,100710.03
2023-01-06T05:43:23.731Z,100697.06
2023-01-06T05:48:26.036Z,100698.75
2023-01-06T05:53:28.025Z,100700.47
2023-01-06T05:58:28.953Z,100694.41
2023-01-06T06:03:29.666Z,100683.19
2023-01-06T06:08:31.746Z,100687.53
2023-01-06T06:13:32.578Z,100687.50
2023-01-06T06:18:33.371Z,100686.66
2023-01-06T06:23:35.405Z,100682.34
2023-01-06T06:28:37.378Z,100676.31
2023-01-06T06:33:38.639Z,100685.78
2023-01-06T06:38:40.664Z,100672.84
2023-01-06T06:43:42.110Z,100679.75
2023-01-06T06:48:42.891Z,100680.63
2023-01-06T06:53:45.176Z,100666.81
2023-01-06T06:58:46.356Z,100659.91
2023-01-06T07:03:47.160Z,100661.63
2023-01-06T07:08:49.952Z,100664.22
2023-01-06T07:13:50.673Z,100663.34
2023-01-06T07:18:51.318Z,100667.69
2023-01-06T07:23:53.310Z,100663.38
2023-01-06T07:28:58.392Z,100659.03
2023-01-06T07:33:59.056Z,100657.31
2023-01-06T07:39:01.467Z,100653.00
2023-01-06T07:44:02.142Z,100633.97
2023-01-06T07:49:02.856Z,100635.72
2023-01-06T07:54:04.994Z,100632.25
2023-01-06T07:59:05.991Z,100631.38
2023-01-06T08:04:06.668Z,100633.94
2023-01-06T08:09:09.131Z,100620.94
2023-01-06T08:14:09.760Z,100621.81
2023-01-06T08:19:10.548Z,100633.06
2023-01-06T08:24:12.673Z,100633.03
2023-01-06T08:29:13.650Z,100631.28
2023-01-06T08:34:15.478Z,100618.31
2023-01-06T08:39:17.522Z,100608.72
2023-01-06T08:44:18.598Z,100606.09
2023-01-06T08:49:20.438Z,100600.88
2023-01-06T08:54:23.906Z,100622.41
2023-01-06T08:59:24.728Z,100624.84
2023-01-06T09:04:25.432Z,100628.09
2023-01-06T09:09:28.778Z,100618.44
2023-01-06T09:14:30.810Z,100618.28
2023-01-06T09:19:31.534Z,100615.75
2023-01-06T09:24:33.662Z,100625.28
2023-01-06T09:29:34.498Z,100620.13
2023-01-06T09:34:35.181Z,100620.94
2023-01-06T09:39:37.977Z,100627.00
2023-01-06T09:44:47.516Z,100617.47
2023-01-06T09:49:53.042Z,100607.03
2023-01-06T09:54:58.966Z,100606.88
2023-01-06T10:00:02.113Z,100590.16
2023-01-06T10:05:02.934Z,100589.94
2023-01-06T10:10:22.234Z,100575.91
2023-01-06T10:15:31.205Z,100577.59
2023-01-06T10:20:53.160Z,100559.16
2023-01-06T10:26:00.611Z,100559.88
2023-01-06T10:31:05.798Z,100546.75
2023-01-06T10:36:13.550Z,100556.06
2023-01-06T10:41:23.573Z,100540.47
2023-01-06T10:46:29.487Z,100530.94
2023-01-06T10:51:37.852Z,100520.47
2023-01-06T10:56:44.274Z,100512.88
2023-01-06T11:01:54.282Z,100507.41
2023-01-06T11:06:56.978Z,100496.69
2023-01-06T11:12:00.948Z,100501.53
2023-01-06T11:17:04.353Z,100498.00
2023-01-06T11:22:06.133Z,100488.28
2023-01-06T11:27:18.560Z,100495.34
2023-01-06T11:32:22.706Z,100466.22
2023-01-06T11:37:34.439Z,100465.19
2023-01-06T11:42:36.547Z,100485.66
2023-01-06T11:47:39.269Z,100473.41
2023-01-06T11:52:41.145Z,100474.75
2023-01-06T11:57:51.129Z,100483.34
2023-01-06T12:02:56.808Z,100479.91
2023-01-06T12:07:59.510Z,100477.06
2023-01-06T12:13:01.680Z,100476.28
2023-01-06T12:18:06.150Z,100493.50
2023-01-06T12:23:12.495Z,100508.41
2023-01-06T12:28:19.510Z,100501.91
2023-01-06T12:33:26.099Z,100517.72
2023-01-06T12:38:40.085Z,100514.34
2023-01-06T12:43:50.039Z,100506.44
2023-01-06T12:48:55.380Z,100505.53
2023-01-06T12:54:02.989Z,100509.88
2023-01-06T12:59:16.518Z,100496.88
2023-01-06T13:04:41.261Z,100513.09
2023-01-06T13:09:53.641Z,100487.88
2023-01-06T13:15:04.778Z,100509.19
2023-01-06T13:20:10.884Z,100502.97
2023-01-06T13:25:42.329Z,100487.31
2023-01-06T13:31:12.246Z,100457.69
2023-01-06T13:36:44.700Z,100492.94
2023-01-06T13:41:49.606Z,100490.94
2023-01-06T13:46:54.678Z,100488.13
2023-01-06T13:51:55.419Z,100491.63
2023-01-06T13:57:29.278Z,100488.53
2023-01-06T14:03:26.542Z,100481.59
2023-01-06T14:08:35.493Z,100485.06
2023-01-06T14:13:40.889Z,100492.19
2023-01-06T14:18:44.238Z,100493.88
2023-01-06T14:23:56.768Z,100488.78
2023-01-06T14:29:36.149Z,100505.28
2023-01-06T14:34:39.283Z,100511.41
2023-01-06T14:39:42.831Z,100514.09
2023-01-06T14:44:47.587Z,100507.06
2023-01-06T14:49:57.366Z,100511.47
2023-01-06T14:55:00.516Z,100514.91
2023-01-06T15:00:16.269Z,100520.13
2023-01-06T15:05:20.382Z,100522.75
2023-01-06T15:10:22.828Z,100527.94
2023-01-06T15:15:25.135Z,100537.53
2023-01-06T15:20:30.519Z,100533.09
2023-01-06T15:25:34.978Z,100541.47
2023-01-06T15:30:36.767Z,100536.50
2023-01-06T15:35:37.638Z,100545.25
2023-01-06T15:40:40.718Z,100547.94
2023-01-06T15:45:41.457Z,100553.16
2023-01-06T15:50:42.359Z,100552.13
2023-01-06T15:55:51.775Z,100555.31
2023-01-06T16:00:58.403Z,100561.19
2023-01-06T16:06:11.117Z,100565.59
2023-01-06T16:11:41.679Z,100559.72
2023-01-06T16:16:42.506Z,100565.69
2023-01-06T16:21:45.250Z,100557.84
2023-01-06T16:26:53.611Z,100577.81
2023-01-06T16:31:54.315Z,100589.97
2023-01-06T16:36:56.753Z,100589.53
2023-01-06T16:42:40.455Z,100582.97
2023-01-06T16:47:41.473Z,100584.72
2023-01-06T16:52:42.349Z,100588.88
2023-01-06T16:57:48.938Z,100596.72
2023-01-06T17:02:51.185Z,100596.66
2023-01-06T17:07:53.323Z,100603.53
2023-01-06T17:13:15.229Z,100611.34
2023-01-06T17:18:24.347Z,100621.78
2023-01-06T17:23:25.058Z,100627.88
2023-01-06T17:28:27.049Z,100620.06
2023-01-06T17:33:29.628Z,100626.13
2023-01-06T17:38:31.483Z,100621.09
2023-01-06T17:43:36.245Z,100641.22
2023-01-06T17:48:37.070Z,100635.25
2023-01-06T17:53:55.677Z,100647.38
2023-01-06T17:59:03.299Z,100650.13
2023-01-06T18:04:09.096Z,100655.31
2023-01-06T18:09:13.379Z,100658.75
2023-01-06T18:14:27.984Z,100664.84
2023-01-06T18:19:31.905Z,100664.00
2023-01-06T18:24:37.365Z,100667.47
2023-01-06T18:29:41.684Z,100674.38
2023-01-06T18:34:44.989Z,100671.78
2023-01-06T18:39:48.154Z,100677.03
2023-01-06T18:44:50.955Z,100681.41
2023-01-06T18:49:58.492Z,100693.59
2023-01-06T18:55:00.687Z,100697.06
2023-01-06T19:00:13.312Z,100678.91
2023-01-06T19:05:14.738Z,100681.50
2023-01-06T19:10:26.489Z,100690.31
2023-01-06T19:15:28.546Z,100704.28
2023-01-06T19:20:35.156Z,100704.38
2023-01-06T19:25:40.851Z,100707.78
2023-01-06T19:30:49.499Z,100707.66
2023-01-06T19:35:51.824Z,100705.19
2023-01-06T19:40:53.631Z,100708.75
2023-01-06T19:45:55.804Z,100729.56
2023-01-06T19:51:09.461Z,100726.16
2023-01-06T19:56:17.373Z,100721.03
2023-01-06T20:01:19.909Z,100721.03
2023-01-06T20:06:21.567Z,100725.34
2023-01-06T20:11:24.521Z,100726.31
2023-01-06T20:16:26.573Z,100736.78
2023-01-06T20:21:27.307Z,100730.66
2023-01-06T20:26:28.032Z,100741.13
2023-01-06T20:31:30.111Z,100746.28
2023-01-06T20:36:30.951Z,100749.81
2023-01-06T20:41:31.683Z,100741.22
2023-01-06T20:46:33.705Z,100742.13
2023-01-06T20:51:34.490Z,100761.31
2023-01-06T20:56:35.150Z,100764.78
2023-01-06T21:01:37.303Z,100775.16
2023-01-06T21:06:38.039Z,100756.03
2023-01-06T21:11:38.719Z,100776.06
2023-01-06T21:16:40.770Z,100764.84
2023-01-06T21:21:41.479Z,100770.94
2023-01-06T21:26:42.179Z,100773.53
2023-01-06T21:31:44.288Z,100770.13
2023-01-06T21:36:45.008Z,100779.69
2023-01-06T21:42:03.131Z,100773.56
2023-01-06T21:47:05.424Z,100773.50
2023-01-06T21:52:06.886Z,100770.03
2023-01-06T21:57:07.606Z,100771.75
2023-01-06T22:02:10.558Z,100772.59
2023-01-06T22:07:11.675Z,100772.63
2023-01-06T22:12:16.291Z,100777.88
2023-01-06T22:17:19.366Z,100777.06
2023-01-06T22:22:22.155Z,100778.88
2023-01-06T22:27:23.855Z,100784.03
2023-01-06T22:32:27.634Z,100783.06
2023-01-06T22:37:28.304Z,100790.81
2023-01-06T22:42:29.062Z,100787.38
2023-01-06T22:47:31.140Z,100784.78
2023-01-06T22:52:32.071Z,100791.72
2023-01-06T22:57:32.765Z,100791.78
2023-01-06T23:02:34.944Z,100789.13
2023-01-06T23:07:38.124Z,100791.69
2023-01-06T23:12:40.593Z,100799.50
2023-01-06T23:17:42.587Z,100783.91
2023-01-06T23:22:43.315Z,100785.63
2023-01-06T23:27:44.103Z,100790.94
2023-01-06T23:32:46.136Z,100789.97
2023-01-06T23:37:46.765Z,100788.28
2023-01-06T23:42:48.854Z,100783.94
2023-01-06T23:47:51.080Z,100783.13
2023-01-06T23:52:53.546Z,100775.28
2023-01-06T23:57:55.355Z,100764.97
